Portada
METAR-TAF:

METAR-TAF

Aeroports :

Nadi, Fiji

latitud: 17-45S, longitud: 177-27E, altitud: 13 m

Observació

L'informe es va fer fa 1 hora i 14 minuts, a les 10:00 UTC
Vent 5 kt del Sud/Sud-Est
Temperatura 25°C
Humitat 83%
Pressió 1016 hPa
Visibilitat 10 km o més
Escasses núvols a una alçada de 3000 ft
Núvols disperses a una alçada de 4800 ft

METAR: NFFN 251000Z 15005KT 9999 FEW030 SCT048 25/22 Q1016 NOSIG

Hora: 23:14 (11:14 UTC)

Pronòstic

L'informe es va fer fa 6 hores i 3 minuts, a les 05:11 UTC
Pronòstic vàlid del 25 a les 06 UTC al 26 a les 06 UTC
Vent 7 kt del Est/Sud-Est
Visibilitat 10 km o més
Escasses núvols a una alçada de 2800 ft
Núvols disperses a una alçada de 4800 ft
Evolucionant progressivament
l' 25 a les 22 UTC al 25 a les 24 UTC
Vent 10 kt del Nord-Oest
Evolucionant progressivament
l' 26 a les 04 UTC al 26 a les 06 UTC
Vent 6 kt del Est/Sud-Est

TAF: NFFN 250511Z 2506/2606 12007KT 9999 FEW028 SCT048 BECMG 2522/2524 31010KT BECMG 2604/2606 12006KT

Observacions i pronòstics meteorològics de més de 4000 aeroports (METAR i TAF).

Les estacions disponibles són els punts grocs i vermells al mapa.

Posi el ratolí al punt desitjat per veure el nom de l'estació.

Feu clic per veure les observacions i els pronòstics meteorològics.

Per canviar el mapa: feu clic els botons verds amb una creu de color negre per apropar; al botó verd amb un guió per allunyar la imatge; o en les fletxes verdes per a mapes adjacents.


METAR-TAF: